sensor_id;sensor_type;location;lat;lon;timestamp;pressure;altitude;pressure_sealevel;temperature;humidity
8627;BME280;4351;51.422;6.794;2023-05-19T00:00:30;102476.78;;;10.33;100.00
8627;BME280;4351;51.422;6.794;2023-05-19T00:02:59;102467.69;;;10.38;100.00
8627;BME280;4351;51.422;6.794;2023-05-19T00:05:31;102473.03;;;10.39;100.00
8627;BME280;4351;51.422;6.794;2023-05-19T00:07:59;102475.94;;;10.33;100.00
8627;BME280;4351;51.422;6.794;2023-05-19T00:10:28;102468.88;;;10.29;100.00
8627;BME280;4351;51.422;6.794;2023-05-19T00:12:58;102469.72;;;10.31;100.00
8627;BME280;4351;51.422;6.794;2023-05-19T00:15:26;102474.28;;;10.29;100.00
8627;BME280;4351;51.422;6.794;2023-05-19T00:17:54;102473.09;;;10.38;100.00
8627;BME280;4351;51.422;6.794;2023-05-19T00:20:22;102471.72;;;10.24;100.00
8627;BME280;4351;51.422;6.794;2023-05-19T00:22:51;102478.28;;;10.15;100.00
8627;BME280;4351;51.422;6.794;2023-05-19T00:25:19;102469.16;;;10.19;100.00
8627;BME280;4351;51.422;6.794;2023-05-19T00:27:47;102477.97;;;10.24;100.00
8627;BME280;4351;51.422;6.794;2023-05-19T00:30:15;102469.16;;;10.19;100.00
8627;BME280;4351;51.422;6.794;2023-05-19T00:32:42;102465.81;;;10.11;100.00
8627;BME280;4351;51.422;6.794;2023-05-19T00:35:10;102471.50;;;10.02;100.00
8627;BME280;4351;51.422;6.794;2023-05-19T00:37:39;102475.47;;;9.88;100.00
8627;BME280;4351;51.422;6.794;2023-05-19T00:40:09;102471.25;;;9.79;100.00
8627;BME280;4351;51.422;6.794;2023-05-19T00:42:37;102465.34;;;9.66;100.00
8627;BME280;4351;51.422;6.794;2023-05-19T00:45:06;102471.63;;;9.66;100.00
8627;BME280;4351;51.422;6.794;2023-05-19T00:47:34;102462.69;;;9.64;100.00
8627;BME280;4351;51.422;6.794;2023-05-19T00:50:02;102459.75;;;9.72;100.00
8627;BME280;4351;51.422;6.794;2023-05-19T00:52:30;102463.59;;;9.65;100.00
8627;BME280;4351;51.422;6.794;2023-05-19T00:54:58;102451.22;;;9.58;100.00
8627;BME280;4351;51.422;6.794;2023-05-19T00:57:28;102462.28;;;9.47;100.00
8627;BME280;4351;51.422;6.794;2023-05-19T00:59:56;102453.13;;;9.52;100.00
8627;BME280;4351;51.422;6.794;2023-05-19T01:02:24;102453.13;;;9.52;100.00
8627;BME280;4351;51.422;6.794;2023-05-19T01:04:52;102456.66;;;9.54;100.00
8627;BME280;4351;51.422;6.794;2023-05-19T01:07:20;102451.28;;;9.54;100.00
8627;BME280;4351;51.422;6.794;2023-05-19T01:09:48;102450.38;;;9.56;100.00
8627;BME280;4351;51.422;6.794;2023-05-19T01:12:16;102449.72;;;9.47;100.00
8627;BME280;4351;51.422;6.794;2023-05-19T01:14:46;102458.72;;;9.46;100.00
8627;BME280;4351;51.422;6.794;2023-05-19T01:17:20;102451.56;;;9.45;100.00
8627;BME280;4351;51.422;6.794;2023-05-19T01:19:56;102452.09;;;9.58;100.00
8627;BME280;4351;51.422;6.794;2023-05-19T01:22:55;102446.59;;;9.63;100.00
8627;BME280;4351;51.422;6.794;2023-05-19T01:28:41;102443.88;;;9.63;100.00
8627;BME280;4351;51.422;6.794;2023-05-19T01:31:20;102445.38;;;9.73;100.00
8627;BME280;4351;51.422;6.794;2023-05-19T01:33:52;102436.34;;;9.74;100.00
8627;BME280;4351;51.422;6.794;2023-05-19T01:36:22;102438.97;;;9.77;100.00
8627;BME280;4351;51.422;6.794;2023-05-19T01:38:55;102439.00;;;9.76;100.00
8627;BME280;4351;51.422;6.794;2023-05-19T01:41:24;102444.56;;;9.70;100.00
8627;BME280;4351;51.422;6.794;2023-05-19T01:43:54;102445.25;;;9.78;100.00
8627;BME280;4351;51.422;6.794;2023-05-19T01:46:24;102445.97;;;9.83;100.00
8627;BME280;4351;51.422;6.794;2023-05-19T01:48:53;102449.81;;;9.74;100.00
8627;BME280;4351;51.422;6.794;2023-05-19T01:51:22;102447.94;;;9.78;100.00
8627;BME280;4351;51.422;6.794;2023-05-19T01:53:50;102447.00;;;9.79;100.00
8627;BME280;4351;51.422;6.794;2023-05-19T01:56:25;102440.88;;;9.74;100.00
8627;BME280;4351;51.422;6.794;2023-05-19T01:59:03;102447.97;;;9.76;100.00
8627;BME280;4351;51.422;6.794;2023-05-19T02:01:45;102450.84;;;9.70;100.00
8627;BME280;4351;51.422;6.794;2023-05-19T02:04:24;102446.53;;;9.64;100.00
8627;BME280;4351;51.422;6.794;2023-05-19T02:07:00;102449.09;;;9.69;100.00
8627;BME280;4351;51.422;6.794;2023-05-19T02:09:40;102449.94;;;9.70;100.00
8627;BME280;4351;51.422;6.794;2023-05-19T02:12:16;102451.78;;;9.69;100.00
8627;BME280;4351;51.422;6.794;2023-05-19T02:14:49;102448.00;;;9.75;100.00
8627;BME280;4351;51.422;6.794;2023-05-19T02:17:22;102449.09;;;9.69;100.00
8627;BME280;4351;51.422;6.794;2023-05-19T02:19:50;102443.59;;;9.72;100.00
8627;BME280;4351;51.422;6.794;2023-05-19T02:22:18;102445.44;;;9.70;100.00
8627;BME280;4351;51.422;6.794;2023-05-19T02:24:46;102445.44;;;9.72;100.00
8627;BME280;4351;51.422;6.794;2023-05-19T02:27:17;102447.13;;;9.74;100.00
8627;BME280;4351;51.422;6.794;2023-05-19T02:29:45;102448.16;;;9.70;100.00
8627;BME280;4351;51.422;6.794;2023-05-19T02:32:13;102445.69;;;9.62;100.00
8627;BME280;4351;51.422;6.794;2023-05-19T02:34:43;102438.66;;;9.57;100.00
8627;BME280;4351;51.422;6.794;2023-05-19T02:37:11;102434.09;;;9.59;100.00
8627;BME280;4351;51.422;6.794;2023-05-19T02:39:40;102431.81;;;9.45;100.00
8627;BME280;4351;51.422;6.794;2023-05-19T02:42:08;102429.91;;;9.48;100.00
8627;BME280;4351;51.422;6.794;2023-05-19T02:44:35;102435.47;;;9.42;100.00
8627;BME280;4351;51.422;6.794;2023-05-19T02:47:03;102426.31;;;9.49;100.00
8627;BME280;4351;51.422;6.794;2023-05-19T02:49:31;102427.97;;;9.53;100.00
8627;BME280;4351;51.422;6.794;2023-05-19T02:52:03;102416.41;;;9.50;100.00
8627;BME280;4351;51.422;6.794;2023-05-19T02:54:32;102418.25;;;9.48;100.00
8627;BME280;4351;51.422;6.794;2023-05-19T02:57:01;102411.28;;;9.40;100.00
8627;BME280;4351;51.422;6.794;2023-05-19T02:59:29;102420.09;;;9.47;100.00
8627;BME280;4351;51.422;6.794;2023-05-19T03:01:59;102425.41;;;9.49;100.00
8627;BME280;4351;51.422;6.794;2023-05-19T03:04:28;102422.00;;;9.42;100.00
8627;BME280;4351;51.422;6.794;2023-05-19T03:06:56;102420.53;;;9.31;100.00
8627;BME280;4351;51.422;6.794;2023-05-19T03:09:25;102417.66;;;9.38;100.00
8627;BME280;4351;51.422;6.794;2023-05-19T03:11:53;102423.03;;;9.38;100.00
8627;BME280;4351;51.422;6.794;2023-05-19T03:14:21;102428.34;;;9.41;100.00
8627;BME280;4351;51.422;6.794;2023-05-19T03:16:50;102428.25;;;9.44;100.00
8627;BME280;4351;51.422;6.794;2023-05-19T03:19:18;102424.63;;;9.45;100.00
8627;BME280;4351;51.422;6.794;2023-05-19T03:21:47;102424.06;;;9.34;100.00
8627;BME280;4351;51.422;6.794;2023-05-19T03:24:15;102428.41;;;9.38;100.00
8627;BME280;4351;51.422;6.794;2023-05-19T03:26:45;102425.91;;;9.31;100.00
8627;BME280;4351;51.422;6.794;2023-05-19T03:29:13;102424.19;;;9.29;100.00
8627;BME280;4351;51.422;6.794;2023-05-19T03:31:42;102421.59;;;9.24;100.00
8627;BME280;4351;51.422;6.794;2023-05-19T03:34:11;102419.84;;;9.23;100.00
8627;BME280;4351;51.422;6.794;2023-05-19T03:36:39;102425.97;;;9.28;100.00
8627;BME280;4351;51.422;6.794;2023-05-19T03:39:13;102426.81;;;9.30;100.00
8627;BME280;4351;51.422;6.794;2023-05-19T03:41:41;102419.69;;;9.29;100.00
8627;BME280;4351;51.422;6.794;2023-05-19T03:44:10;102421.72;;;9.19;100.00
8627;BME280;4351;51.422;6.794;2023-05-19T03:46:39;102420.81;;;9.20;100.00
8627;BME280;4351;51.422;6.794;2023-05-19T03:49:39;102423.72;;;9.13;100.00
8627;BME280;4351;51.422;6.794;2023-05-19T03:52:25;102426.44;;;9.11;100.00
8627;BME280;4351;51.422;6.794;2023-05-19T03:54:59;102424.13;;;9.30;100.00
8627;BME280;4351;51.422;6.794;2023-05-19T03:57:27;102420.72;;;9.24;100.00
8627;BME280;4351;51.422;6.794;2023-05-19T03:59:57;102418.31;;;9.13;100.00
8627;BME280;4351;51.422;6.794;2023-05-19T04:02:25;102411.38;;;9.05;100.00
8627;BME280;4351;51.422;6.794;2023-05-19T04:04:53;102419.38;;;9.07;100.00
8627;BME280;4351;51.422;6.794;2023-05-19T04:07:21;102418.44;;;9.10;100.00
8627;BME280;4351;51.422;6.794;2023-05-19T04:09:49;102421.28;;;9.03;100.00
8627;BME280;4351;51.422;6.794;2023-05-19T04:12:17;102416.66;;;9.08;100.00
8627;BME280;4351;51.422;6.794;2023-05-19T04:14:45;102427.41;;;9.10;100.00
8627;BME280;4351;51.422;6.794;2023-05-19T04:17:14;102424.47;;;9.18;100.00
8627;BME280;4351;51.422;6.794;2023-05-19T04:19:42;102430.69;;;9.20;100.00
8627;BME280;4351;51.422;6.794;2023-05-19T04:22:10;102429.88;;;9.18;100.00
8627;BME280;4351;51.422;6.794;2023-05-19T04:24:38;102439.00;;;9.12;100.00
8627;BME280;4351;51.422;6.794;2023-05-19T04:27:07;102431.72;;;9.16;100.00
8627;BME280;4351;51.422;6.794;2023-05-19T04:29:38;102425.31;;;9.20;100.00
8627;BME280;4351;51.422;6.794;2023-05-19T04:32:07;102427.28;;;9.13;100.00
8627;BME280;4351;51.422;6.794;2023-05-19T04:34:39;102433.75;;;9.07;100.00
8627;BME280;4351;51.422;6.794;2023-05-19T04:37:14;102434.34;;;9.19;100.00
8627;BME280;4351;51.422;6.794;2023-05-19T04:39:42;102434.34;;;9.19;100.00
8627;BME280;4351;51.422;6.794;2023-05-19T04:42:12;102428.00;;;9.20;100.00
8627;BME280;4351;51.422;6.794;2023-05-19T04:44:40;102436.34;;;9.11;100.00
8627;BME280;4351;51.422;6.794;2023-05-19T04:47:08;102432.47;;;9.21;100.00
8627;BME280;4351;51.422;6.794;2023-05-19T04:49:37;102436.09;;;9.20;100.00
8627;BME280;4351;51.422;6.794;2023-05-19T04:52:07;102439.44;;;9.28;100.00
8627;BME280;4351;51.422;6.794;2023-05-19T04:54:38;102435.72;;;9.34;100.00
8627;BME280;4351;51.422;6.794;2023-05-19T04:57:10;102444.75;;;9.31;100.00
8627;BME280;4351;51.422;6.794;2023-05-19T04:59:38;102435.34;;;9.15;100.00
8627;BME280;4351;51.422;6.794;2023-05-19T05:02:07;102434.16;;;9.25;100.00
8627;BME280;4351;51.422;6.794;2023-05-19T05:04:36;102440.47;;;9.24;100.00
8627;BME280;4351;51.422;6.794;2023-05-19T05:07:09;102442.84;;;9.35;100.00
8627;BME280;4351;51.422;6.794;2023-05-19T05:09:38;102435.47;;;9.42;100.00
8627;BME280;4351;51.422;6.794;2023-05-19T05:12:07;102435.97;;;9.57;100.00
8627;BME280;4351;51.422;6.794;2023-05-19T05:14:38;102435.03;;;9.58;100.00
8627;BME280;4351;51.422;6.794;2023-05-19T05:17:09;102431.31;;;9.62;100.00
8627;BME280;4351;51.422;6.794;2023-05-19T05:19:37;102435.63;;;9.69;100.00
8627;BME280;4351;51.422;6.794;2023-05-19T05:22:06;102437.38;;;9.70;100.00
8627;BME280;4351;51.422;6.794;2023-05-19T05:24:39;102448.78;;;9.78;100.00
8627;BME280;4351;51.422;6.794;2023-05-19T05:27:08;102444.06;;;9.87;100.00
8627;BME280;4351;51.422;6.794;2023-05-19T05:29:36;102438.34;;;9.98;100.00
8627;BME280;4351;51.422;6.794;2023-05-19T05:32:06;102445.44;;;10.00;100.00
8627;BME280;4351;51.422;6.794;2023-05-19T05:34:36;102440.66;;;10.10;100.00
8627;BME280;4351;51.422;6.794;2023-05-19T05:37:05;102436.94;;;10.15;100.00
8627;BME280;4351;51.422;6.794;2023-05-19T05:39:34;102440.31;;;10.21;100.00
8627;BME280;4351;51.422;6.794;2023-05-19T05:42:06;102439.22;;;10.27;100.00
8627;BME280;4351;51.422;6.794;2023-05-19T05:44:34;102440.03;;;10.31;100.00
8627;BME280;4351;51.422;6.794;2023-05-19T05:47:05;102441.50;;;10.41;100.00
8627;BME280;4351;51.422;6.794;2023-05-19T05:49:34;102446.75;;;10.46;100.00
8627;BME280;4351;51.422;6.794;2023-05-19T05:52:04;102431.38;;;10.48;100.00
8627;BME280;4351;51.422;6.794;2023-05-19T05:54:44;102432.13;;;10.53;100.00
8627;BME280;4351;51.422;6.794;2023-05-19T05:57:17;102436.25;;;10.65;100.00
8627;BME280;4351;51.422;6.794;2023-05-19T05:59:45;102428.13;;;10.65;100.00
8627;BME280;4351;51.422;6.794;2023-05-19T06:02:14;102441.94;;;10.83;100.00
8627;BME280;4351;51.422;6.794;2023-05-19T06:04:42;102435.59;;;10.84;100.00
8627;BME280;4351;51.422;6.794;2023-05-19T06:07:10;102438.28;;;10.84;100.00
8627;BME280;4351;51.422;6.794;2023-05-19T06:09:38;102438.06;;;10.90;100.00
8627;BME280;4351;51.422;6.794;2023-05-19T06:12:08;102437.66;;;11.03;100.00
8627;BME280;4351;51.422;6.794;2023-05-19T06:14:43;102430.59;;;10.99;100.00
8627;BME280;4351;51.422;6.794;2023-05-19T06:17:31;102435.13;;;10.98;100.00
8627;BME280;4351;51.422;6.794;2023-05-19T06:20:01;102437.13;;;11.19;100.00
8627;BME280;4351;51.422;6.794;2023-05-19T06:22:29;102432.41;;;11.24;100.00
8627;BME280;4351;51.422;6.794;2023-05-19T06:24:56;102434.53;;;11.40;100.00
8627;BME280;4351;51.422;6.794;2023-05-19T06:27:24;102432.56;;;11.45;100.00
8627;BME280;4351;51.422;6.794;2023-05-19T06:29:54;102440.63;;;11.46;100.00
8627;BME280;4351;51.422;6.794;2023-05-19T06:32:22;102438.56;;;11.53;100.00
8627;BME280;4351;51.422;6.794;2023-05-19T06:34:51;102441.91;;;11.60;100.00
8627;BME280;4351;51.422;6.794;2023-05-19T06:37:21;102437.06;;;11.92;100.00
8627;BME280;4351;51.422;6.794;2023-05-19T06:39:51;102442.16;;;12.00;100.00
8627;BME280;4351;51.422;6.794;2023-05-19T06:42:20;102437.97;;;11.93;100.00
8627;BME280;4351;51.422;6.794;2023-05-19T06:45:08;102448.06;;;12.12;100.00
8627;BME280;4351;51.422;6.794;2023-05-19T06:47:39;102451.34;;;12.20;100.00
8627;BME280;4351;51.422;6.794;2023-05-19T06:50:08;102448.91;;;12.36;100.00
8627;BME280;4351;51.422;6.794;2023-05-19T06:52:40;102446.75;;;12.45;100.00
8627;BME280;4351;51.422;6.794;2023-05-19T06:55:08;102448.84;;;12.38;100.00
8627;BME280;4351;51.422;6.794;2023-05-19T06:57:37;102440.91;;;12.56;100.00
8627;BME280;4351;51.422;6.794;2023-05-19T07:00:08;102448.50;;;12.68;100.00
8627;BME280;4351;51.422;6.794;2023-05-19T07:02:42;102442.22;;;12.88;100.00
8627;BME280;4351;51.422;6.794;2023-05-19T07:05:10;102447.31;;;12.96;100.00
8627;BME280;4351;51.422;6.794;2023-05-19T07:07:38;102440.06;;;12.97;100.00
8627;BME280;4351;51.422;6.794;2023-05-19T07:10:11;102447.31;;;13.17;100.00
8627;BME280;4351;51.422;6.794;2023-05-19T07:12:40;102437.91;;;13.05;100.00
8627;BME280;4351;51.422;6.794;2023-05-19T07:15:10;102437.44;;;13.16;100.00
8627;BME280;4351;51.422;6.794;2023-05-19T07:17:38;102439.25;;;13.16;100.00
8627;BME280;4351;51.422;6.794;2023-05-19T07:20:08;102440.41;;;13.10;100.00
8627;BME280;4351;51.422;6.794;2023-05-19T07:22:36;102436.19;;;13.24;100.00
8627;BME280;4351;51.422;6.794;2023-05-19T07:25:06;102442.53;;;13.43;100.00
8627;BME280;4351;51.422;6.794;2023-05-19T07:27:35;102431.53;;;13.27;100.00
8627;BME280;4351;51.422;6.794;2023-05-19T07:30:03;102436.06;;;13.27;100.00
8627;BME280;4351;51.422;6.794;2023-05-19T07:32:33;102437.84;;;13.47;100.00
8627;BME280;4351;51.422;6.794;2023-05-19T07:35:01;102432.75;;;13.60;100.00
8627;BME280;4351;51.422;6.794;2023-05-19T07:37:29;102431.16;;;13.56;100.00
8627;BME280;4351;51.422;6.794;2023-05-19T07:39:57;102435.88;;;13.51;100.00
8627;BME280;4351;51.422;6.794;2023-05-19T07:42:25;102433.22;;;13.70;100.00
8627;BME280;4351;51.422;6.794;2023-05-19T07:44:52;102433.81;;;13.77;100.00
8627;BME280;4351;51.422;6.794;2023-05-19T07:47:21;102430.59;;;13.68;100.00
8627;BME280;4351;51.422;6.794;2023-05-19T07:49:50;102431.91;;;13.79;100.00
8627;BME280;4351;51.422;6.794;2023-05-19T07:52:18;102426.31;;;13.82;100.00
8627;BME280;4351;51.422;6.794;2023-05-19T07:54:46;102423.31;;;14.08;100.00
8627;BME280;4351;51.422;6.794;2023-05-19T07:57:14;102421.13;;;13.97;100.00
8627;BME280;4351;51.422;6.794;2023-05-19T07:59:42;102419.84;;;14.04;100.00
8627;BME280;4351;51.422;6.794;2023-05-19T08:02:10;102417.41;;;14.36;100.00
8627;BME280;4351;51.422;6.794;2023-05-19T08:04:38;102419.84;;;14.23;100.00
8627;BME280;4351;51.422;6.794;2023-05-19T08:07:07;102413.81;;;14.36;100.00
8627;BME280;4351;51.422;6.794;2023-05-19T08:09:35;102409.88;;;14.42;100.00
8627;BME280;4351;51.422;6.794;2023-05-19T08:12:03;102407.59;;;14.52;100.00
8627;BME280;4351;51.422;6.794;2023-05-19T08:14:31;102411.19;;;14.70;100.00
8627;BME280;4351;51.422;6.794;2023-05-19T08:17:00;102407.28;;;14.76;100.00
8627;BME280;4351;51.422;6.794;2023-05-19T08:19:28;102409.63;;;15.01;100.00
8627;BME280;4351;51.422;6.794;2023-05-19T08:21:56;102398.03;;;14.98;100.00
8627;BME280;4351;51.422;6.794;2023-05-19T08:24:28;102400.72;;;15.15;100.00
8627;BME280;4351;51.422;6.794;2023-05-19T08:26:56;102393.53;;;15.14;100.00
8627;BME280;4351;51.422;6.794;2023-05-19T08:29:23;102394.97;;;15.22;100.00
8627;BME280;4351;51.422;6.794;2023-05-19T08:31:51;102392.34;;;15.20;100.00
8627;BME280;4351;51.422;6.794;2023-05-19T08:34:19;102383.75;;;15.28;100.00
8627;BME280;4351;51.422;6.794;2023-05-19T08:36:47;102375.16;;;15.36;100.00
8627;BME280;4351;51.422;6.794;2023-05-19T08:39:15;102376.59;;;15.43;100.00
8627;BME280;4351;51.422;6.794;2023-05-19T08:41:48;102384.84;;;15.58;100.00
8627;BME280;4351;51.422;6.794;2023-05-19T08:44:15;102380.28;;;15.58;100.00
8627;BME280;4351;51.422;6.794;2023-05-19T08:46:45;102376.34;;;15.64;100.00
8627;BME280;4351;51.422;6.794;2023-05-19T08:49:16;102366.16;;;15.51;100.00
8627;BME280;4351;51.422;6.794;2023-05-19T08:51:54;102364.25;;;15.70;100.00
8627;BME280;4351;51.422;6.794;2023-05-19T08:54:29;102364.34;;;15.68;100.00
8627;BME280;4351;51.422;6.794;2023-05-19T08:57:02;102368.78;;;15.69;100.00
8627;BME280;4351;51.422;6.794;2023-05-19T08:59:31;102363.09;;;15.90;100.00
8627;BME280;4351;51.422;6.794;2023-05-19T09:01:59;102364.41;;;15.83;100.00
8627;BME280;4351;51.422;6.794;2023-05-19T09:04:28;102352.91;;;15.78;100.00
8627;BME280;4351;51.422;6.794;2023-05-19T09:06:56;102352.22;;;15.90;100.00
8627;BME280;4351;51.422;6.794;2023-05-19T09:09:24;102345.81;;;15.75;100.00
8627;BME280;4351;51.422;6.794;2023-05-19T09:11:52;102350.09;;;15.63;100.00
8627;BME280;4351;51.422;6.794;2023-05-19T09:14:22;102354.84;;;15.75;100.00
8627;BME280;4351;51.422;6.794;2023-05-19T09:16:49;102361.34;;;15.89;100.00
8627;BME280;4351;51.422;6.794;2023-05-19T09:19:18;102336.75;;;15.91;100.00
8627;BME280;4351;51.422;6.794;2023-05-19T09:21:57;102343.78;;;15.79;100.00
8627;BME280;4351;51.422;6.794;2023-05-19T09:24:26;102337.81;;;15.88;100.00
8627;BME280;4351;51.422;6.794;2023-05-19T09:26:55;102336.78;;;15.74;100.00
8627;BME280;4351;51.422;6.794;2023-05-19T09:29:27;102338.50;;;15.75;100.00
8627;BME280;4351;51.422;6.794;2023-05-19T09:31:55;102326.03;;;16.04;100.00
8627;BME280;4351;51.422;6.794;2023-05-19T09:34:26;102330.56;;;16.36;100.00
8627;BME280;4351;51.422;6.794;2023-05-19T09:36:54;102325.19;;;16.03;100.00
8627;BME280;4351;51.422;6.794;2023-05-19T09:39:23;102325.66;;;16.26;100.00
8627;BME280;4351;51.422;6.794;2023-05-19T09:41:52;102328.28;;;16.28;100.00
8627;BME280;4351;51.422;6.794;2023-05-19T09:44:21;102329.78;;;16.17;100.00
8627;BME280;4351;51.422;6.794;2023-05-19T09:46:52;102316.94;;;16.05;100.00
8627;BME280;4351;51.422;6.794;2023-05-19T09:49:22;102319.56;;;16.37;100.00
8627;BME280;4351;51.422;6.794;2023-05-19T09:51:52;102309.28;;;16.42;100.00
8627;BME280;4351;51.422;6.794;2023-05-19T09:54:21;102320.03;;;16.29;100.00
8627;BME280;4351;51.422;6.794;2023-05-19T09:56:56;102309.84;;;16.17;100.00
8627;BME280;4351;51.422;6.794;2023-05-19T09:59:26;102303.97;;;16.25;100.00
8627;BME280;4351;51.422;6.794;2023-05-19T10:02:00;102323.66;;;16.45;100.00
8627;BME280;4351;51.422;6.794;2023-05-19T10:04:29;102306.56;;;16.57;100.00
8627;BME280;4351;51.422;6.794;2023-05-19T10:06:57;102302.84;;;16.43;100.00
8627;BME280;4351;51.422;6.794;2023-05-19T10:09:26;102314.06;;;16.53;100.00
8627;BME280;4351;51.422;6.794;2023-05-19T10:11:56;102295.59;;;16.28;100.00
8627;BME280;4351;51.422;6.794;2023-05-19T10:14:25;102308.56;;;16.39;100.00
8627;BME280;4351;51.422;6.794;2023-05-19T10:16:55;102308.28;;;16.43;100.00
8627;BME280;4351;51.422;6.794;2023-05-19T10:19:26;102305.19;;;16.50;100.00
8627;BME280;4351;51.422;6.794;2023-05-19T10:21:55;102309.69;;;16.65;100.00
8627;BME280;4351;51.422;6.794;2023-05-19T10:24:23;102300.16;;;16.58;100.00
8627;BME280;4351;51.422;6.794;2023-05-19T10:26:54;102300.94;;;16.60;100.00
8627;BME280;4351;51.422;6.794;2023-05-19T10:29:26;102287.88;;;16.65;100.00
8627;BME280;4351;51.422;6.794;2023-05-19T10:32:01;102300.44;;;16.83;100.00
8627;BME280;4351;51.422;6.794;2023-05-19T10:35:02;102306.22;;;16.78;100.00
8627;BME280;4351;51.422;6.794;2023-05-19T10:37:41;102291.41;;;16.67;100.00
8627;BME280;4351;51.422;6.794;2023-05-19T10:40:15;102269.22;;;17.03;100.00
8627;BME280;4351;51.422;6.794;2023-05-19T10:42:55;102270.69;;;17.23;100.00
8627;BME280;4351;51.422;6.794;2023-05-19T10:45:27;102285.38;;;17.06;100.00
8627;BME280;4351;51.422;6.794;2023-05-19T10:47:57;102286.66;;;16.86;100.00
8627;BME280;4351;51.422;6.794;2023-05-19T10:50:34;102283.41;;;16.94;100.00
8627;BME280;4351;51.422;6.794;2023-05-19T10:53:02;102271.06;;;16.88;100.00
8627;BME280;4351;51.422;6.794;2023-05-19T10:55:49;102277.41;;;17.32;100.00
8627;BME280;4351;51.422;6.794;2023-05-19T10:58:35;102275.44;;;17.05;100.00
8627;BME280;4351;51.422;6.794;2023-05-19T11:01:08;102278.38;;;17.17;100.00
8627;BME280;4351;51.422;6.794;2023-05-19T11:03:47;102269.63;;;17.26;100.00
8627;BME280;4351;51.422;6.794;2023-05-19T11:06:23;102259.56;;;17.12;100.00
8627;BME280;4351;51.422;6.794;2023-05-19T11:08:53;102268.06;;;17.22;100.00
8627;BME280;4351;51.422;6.794;2023-05-19T11:11:22;102265.78;;;17.43;100.00
8627;BME280;4351;51.422;6.794;2023-05-19T11:13:51;102259.66;;;17.40;100.00
8627;BME280;4351;51.422;6.794;2023-05-19T11:16:26;102262.34;;;17.54;100.00
8627;BME280;4351;51.422;6.794;2023-05-19T11:18:57;102252.69;;;17.49;100.00
8627;BME280;4351;51.422;6.794;2023-05-19T11:21:42;102247.75;;;17.41;100.00
8627;BME280;4351;51.422;6.794;2023-05-19T11:24:32;102253.69;;;17.48;100.00
8627;BME280;4351;51.422;6.794;2023-05-19T11:27:18;102250.13;;;17.32;100.00
8627;BME280;4351;51.422;6.794;2023-05-19T11:29:46;102246.16;;;17.51;100.00
8627;BME280;4351;51.422;6.794;2023-05-19T11:32:15;102232.84;;;17.74;100.00
8627;BME280;4351;51.422;6.794;2023-05-19T11:34:44;102225.81;;;17.42;100.00
8627;BME280;4351;51.422;6.794;2023-05-19T11:37:13;102244.47;;;17.63;100.00
8627;BME280;4351;51.422;6.794;2023-05-19T11:39:44;102253.91;;;17.72;100.00
8627;BME280;4351;51.422;6.794;2023-05-19T11:42:12;102257.44;;;17.87;100.00
8627;BME280;4351;51.422;6.794;2023-05-19T11:44:41;102236.88;;;17.81;100.00
8627;BME280;4351;51.422;6.794;2023-05-19T11:47:12;102218.69;;;18.08;100.00
8627;BME280;4351;51.422;6.794;2023-05-19T11:49:42;102240.75;;;17.92;100.00
8627;BME280;4351;51.422;6.794;2023-05-19T11:52:10;102230.84;;;18.17;100.00
8627;BME280;4351;51.422;6.794;2023-05-19T11:54:40;102233.41;;;17.92;100.00
8627;BME280;4351;51.422;6.794;2023-05-19T11:57:08;102230.34;;;17.84;100.00
8627;BME280;4351;51.422;6.794;2023-05-19T11:59:37;102240.53;;;17.95;100.00
8627;BME280;4351;51.422;6.794;2023-05-19T12:02:16;102229.81;;;18.33;100.00
8627;BME280;4351;51.422;6.794;2023-05-19T12:04:45;102224.78;;;18.26;100.00
8627;BME280;4351;51.422;6.794;2023-05-19T12:07:14;102217.59;;;18.52;100.00
8627;BME280;4351;51.422;6.794;2023-05-19T12:09:45;102230.38;;;18.38;100.00
8627;BME280;4351;51.422;6.794;2023-05-19T12:12:14;102223.56;;;18.31;100.00
8627;BME280;4351;51.422;6.794;2023-05-19T12:14:45;102202.38;;;18.47;100.00
8627;BME280;4351;51.422;6.794;2023-05-19T12:17:14;102212.00;;;18.40;100.00
8627;BME280;4351;51.422;6.794;2023-05-19T12:19:45;102207.47;;;18.13;100.00
8627;BME280;4351;51.422;6.794;2023-05-19T12:22:13;102189.28;;;18.26;100.00
8627;BME280;4351;51.422;6.794;2023-05-19T12:24:42;102192.63;;;18.56;100.00
8627;BME280;4351;51.422;6.794;2023-05-19T12:27:16;102190.13;;;18.66;100.00
8627;BME280;4351;51.422;6.794;2023-05-19T12:29:48;102195.28;;;18.58;100.00
8627;BME280;4351;51.422;6.794;2023-05-19T12:32:17;102211.66;;;18.71;100.00
8627;BME280;4351;51.422;6.794;2023-05-19T12:34:45;102207.63;;;18.50;100.00
8627;BME280;4351;51.422;6.794;2023-05-19T12:37:13;102207.31;;;18.42;100.00
8627;BME280;4351;51.422;6.794;2023-05-19T12:39:41;102195.56;;;18.79;100.00
8627;BME280;4351;51.422;6.794;2023-05-19T12:42:11;102182.34;;;18.73;100.00
8627;BME280;4351;51.422;6.794;2023-05-19T12:44:42;102177.88;;;18.59;100.00
8627;BME280;4351;51.422;6.794;2023-05-19T12:47:12;102187.84;;;18.60;100.00
8627;BME280;4351;51.422;6.794;2023-05-19T12:49:52;102182.91;;;18.65;100.00
8627;BME280;4351;51.422;6.794;2023-05-19T12:52:20;102178.41;;;18.77;100.00
8627;BME280;4351;51.422;6.794;2023-05-19T12:54:49;102187.16;;;19.20;100.00
8627;BME280;4351;51.422;6.794;2023-05-19T12:57:20;102175.50;;;18.92;100.00
8627;BME280;4351;51.422;6.794;2023-05-19T12:59:49;102170.69;;;19.09;100.00
8627;BME280;4351;51.422;6.794;2023-05-19T13:02:17;102180.59;;;19.10;100.00
8627;BME280;4351;51.422;6.794;2023-05-19T13:04:46;102183.41;;;19.34;100.00
8627;BME280;4351;51.422;6.794;2023-05-19T13:07:14;102143.69;;;19.28;100.00
8627;BME280;4351;51.422;6.794;2023-05-19T13:09:42;102163.41;;;19.21;100.00
8627;BME280;4351;51.422;6.794;2023-05-19T13:12:11;102160.09;;;19.28;100.00
8627;BME280;4351;51.422;6.794;2023-05-19T13:14:40;102147.44;;;19.14;100.00
8627;BME280;4351;51.422;6.794;2023-05-19T13:17:09;102158.50;;;19.26;100.00
8627;BME280;4351;51.422;6.794;2023-05-19T13:19:36;102164.00;;;19.37;100.00
8627;BME280;4351;51.422;6.794;2023-05-19T13:22:05;102175.13;;;19.23;100.00
8627;BME280;4351;51.422;6.794;2023-05-19T13:24:33;102173.72;;;19.17;100.00